aviador You're here:

CYZP Decoded Metar

SANDSPIT in BC, CANADA
Report Time2017-07-23 06:00:00
UTC Time2017-07-23 06:50:27
Flight Rules vfr VFR
Wind250° at 02 kt
W.Decomp.*RWY 30: 0.6 kt HW 1.9 kt LCW
W.Rank250° ranks 3
Current wind is below 250° avg. (9.5)
Visibility9999 m
Phenomena:N/A
Clouds:Overcast 075 Hf
Expected CloudBase > 800 ft AGL from Temp-Dew spread
Ceiling7,500 ft
Temp13°C (ISA -2)
Dew Point11°C (88% RH)
AAT12.6°C
QNH1021 hPa
Density Alt-308 ft
Elevation20 ft
Report Wrong Elevation
Raw Report
CYZP 230600Z AUTO 25002KT 9SM OVC075 13/11 A3014 RMK SLP208=

Extra information for CYZP:More info

Metar Taf Metar & Taf Last 4 Metars F.Rules Stats Wind Profile Meteogram Temp Stats Airport Information Weather charts Add Link Nearby VenuesMetar ALERT Operation Metar Decoded Social comments